Time;durP1;ratioP1;P1;durP2;ratioP2;P2;SDS_P1;SDS_P2;PMS_P1;PMS_P2;Temp;Humidity;BMP_temperature;BMP_pressure;BME280_temperature;BME280_humidity;BME280_pressure;Samples;Min_cycle;Max_cycle;Signal;HPM_P1;HPM_P2
2023/03/27 00:00:15;;;;;;;1.00;1.00;;;;;;;;;;4975917;28;20663;-54
2023/03/27 00:02:41;;;;;;;1.00;1.00;;;;;;;;;;4980235;28;20197;-55
2023/03/27 00:05:09;;;;;;;1.00;1.00;;;;;;;;;;4972487;28;20234;-54
2023/03/27 00:07:35;;;;;;;0.80;0.80;;;;;;;;;;4954576;28;20195;-54
2023/03/27 00:10:01;;;;;;;0.80;0.80;;;;;;;;;;4974944;28;20713;-53
2023/03/27 00:12:27;;;;;;;0.90;0.90;;;;;;;;;;4960844;28;20191;-54
2023/03/27 00:14:54;;;;;;;0.90;0.90;;;;;;;;;;4953944;28;20268;-54
2023/03/27 00:17:20;;;;;;;0.90;0.90;;;;;;;;;;4951500;28;20202;-57
2023/03/27 00:19:46;;;;;;;1.20;1.20;;;;;;;;;;4966487;28;20733;-56
2023/03/27 00:22:12;;;;;;;1.17;1.17;;;;;;;;;;4966719;28;20750;-56
2023/03/27 00:24:38;;;;;;;1.10;1.10;;;;;;;;;;4961052;28;20219;-54
2023/03/27 00:27:04;;;;;;;0.90;0.90;;;;;;;;;;4961318;28;20190;-57
2023/03/27 00:29:30;;;;;;;1.00;1.00;;;;;;;;;;4970721;28;20194;-54
2023/03/27 00:31:56;;;;;;;0.90;0.90;;;;;;;;;;4973060;28;20190;-54
2023/03/27 00:34:22;;;;;;;1.00;1.00;;;;;;;;;;4972662;28;20198;-54
2023/03/27 00:36:50;;;;;;;1.00;1.00;;;;;;;;;;4969967;28;20230;-54
2023/03/27 00:39:16;;;;;;;1.00;1.00;;;;;;;;;;4970995;28;20222;-53
2023/03/27 00:41:43;;;;;;;0.97;0.97;;;;;;;;;;4981133;28;20222;-53
2023/03/27 00:44:30;;;;;;;0.97;0.97;;;;;;;;;;4968360;28;20222;-55
2023/03/27 00:46:56;;;;;;;0.90;0.90;;;;;;;;;;4969128;28;20201;-53
2023/03/27 00:49:22;;;;;;;1.30;1.30;;;;;;;;;;4972935;28;20217;-54
2023/03/27 00:51:48;;;;;;;1.10;1.10;;;;;;;;;;4969845;28;20195;-54
2023/03/27 00:54:15;;;;;;;1.10;1.10;;;;;;;;;;4974993;28;20187;-53
2023/03/27 00:56:41;;;;;;;1.10;1.10;;;;;;;;;;4971369;28;20190;-54
2023/03/27 00:59:09;;;;;;;1.10;1.10;;;;;;;;;;4969119;28;20191;-54
2023/03/27 01:01:35;;;;;;;0.90;0.90;;;;;;;;;;4970562;28;20209;-54
2023/03/27 01:04:02;;;;;;;0.90;0.90;;;;;;;;;;4946302;28;20236;-58
2023/03/27 01:06:28;;;;;;;1.10;1.10;;;;;;;;;;4968757;28;20238;-54
2023/03/27 01:08:55;;;;;;;0.90;0.90;;;;;;;;;;4973475;28;20186;-53
2023/03/27 01:11:37;;;;;;;1.20;1.20;;;;;;;;;;4977231;28;20318;-54
2023/03/27 01:14:09;;;;;;;1.10;1.10;;;;;;;;;;4959707;28;20202;-53
2023/03/27 01:16:51;;;;;;;1.00;1.00;;;;;;;;;;4971666;28;20806;-54
2023/03/27 01:19:19;;;;;;;1.20;1.20;;;;;;;;;;4969956;28;20362;-54
2023/03/27 01:22:04;;;;;;;1.10;1.10;;;;;;;;;;4972712;28;20718;-53
2023/03/27 01:24:40;;;;;;;2.40;2.30;;;;;;;;;;4973130;28;20794;-57
2023/03/27 01:27:14;;;;;;;1.80;1.70;;;;;;;;;;4969159;28;20187;-57
2023/03/27 01:29:53;;;;;;;1.63;1.63;;;;;;;;;;4975714;28;20665;-53
2023/03/27 01:32:28;;;;;;;1.50;1.50;;;;;;;;;;4975742;28;20183;-53
2023/03/27 01:34:54;;;;;;;2.20;2.10;;;;;;;;;;4974055;28;20228;-53
2023/03/27 01:37:32;;;;;;;2.60;2.50;;;;;;;;;;4972746;28;20249;-53
2023/03/27 01:40:03;;;;;;;1.60;1.60;;;;;;;;;;4977423;28;20190;-53
2023/03/27 01:42:35;;;;;;;2.40;2.30;;;;;;;;;;4971266;28;20191;-54
2023/03/27 01:45:01;;;;;;;1.40;1.40;;;;;;;;;;4969325;28;20199;-53
2023/03/27 01:47:32;;;;;;;1.20;1.20;;;;;;;;;;4971142;28;20187;-53
2023/03/27 01:50:05;;;;;;;1.50;1.50;;;;;;;;;;4970614;28;20567;-53
2023/03/27 01:52:32;;;;;;;1.00;1.00;;;;;;;;;;4970354;28;20196;-54
2023/03/27 01:55:02;;;;;;;1.00;1.00;;;;;;;;;;4963101;28;20341;-54
2023/03/27 01:57:29;;;;;;;1.20;1.20;;;;;;;;;;4965117;28;20210;-53
2023/03/27 01:59:57;;;;;;;1.20;1.20;;;;;;;;;;4957152;28;20190;-54
2023/03/27 02:02:27;;;;;;;0.90;0.90;;;;;;;;;;4969742;28;20214;-54
2023/03/27 02:04:56;;;;;;;1.20;1.20;;;;;;;;;;4963788;28;20224;-53
2023/03/27 02:07:29;;;;;;;1.30;1.30;;;;;;;;;;4973838;28;20715;-54
2023/03/27 02:09:55;;;;;;;1.17;1.17;;;;;;;;;;4968902;28;20871;-53
2023/03/27 02:12:23;;;;;;;1.10;1.10;;;;;;;;;;4968341;28;20304;-53
2023/03/27 02:14:53;;;;;;;1.10;1.10;;;;;;;;;;4978357;28;20225;-53
2023/03/27 02:17:19;;;;;;;1.40;1.40;;;;;;;;;;4970484;28;20229;-54
2023/03/27 02:19:51;;;;;;;1.20;1.20;;;;;;;;;;4964717;28;20304;-59
2023/03/27 02:22:17;;;;;;;1.47;1.47;;;;;;;;;;4972648;28;20195;-54
2023/03/27 02:24:45;;;;;;;1.30;1.30;;;;;;;;;;4969268;28;20221;-54
2023/03/27 02:27:19;;;;;;;1.10;1.10;;;;;;;;;;4969400;28;20270;-54
2023/03/27 02:30:04;;;;;;;1.00;1.00;;;;;;;;;;4960477;28;20189;-54
2023/03/27 02:32:33;;;;;;;1.10;1.10;;;;;;;;;;4970044;28;20187;-53
2023/03/27 02:35:11;;;;;;;1.30;1.30;;;;;;;;;;4970828;28;20229;-53
2023/03/27 02:37:37;;;;;;;1.30;1.30;;;;;;;;;;4969690;28;20285;-54
2023/03/27 02:40:08;;;;;;;1.60;1.60;;;;;;;;;;4971605;28;20194;-54
2023/03/27 02:42:44;;;;;;;1.20;1.20;;;;;;;;;;4969265;28;20198;-54
2023/03/27 02:45:15;;;;;;;1.10;1.10;;;;;;;;;;4972346;28;20978;-54
2023/03/27 02:47:42;;;;;;;1.40;1.40;;;;;;;;;;4974208;28;20198;-53
2023/03/27 02:50:09;;;;;;;1.70;1.70;;;;;;;;;;4955970;28;20190;-54
2023/03/27 02:52:40;;;;;;;1.20;1.20;;;;;;;;;;4968568;28;20191;-56
2023/03/27 02:55:16;;;;;;;1.40;1.40;;;;;;;;;;4967857;28;20829;-53
2023/03/27 02:57:42;;;;;;;1.20;1.20;;;;;;;;;;4961126;28;20202;-53
2023/03/27 03:00:27;;;;;;;1.33;1.33;;;;;;;;;;4966110;28;20197;-57
2023/03/27 03:02:58;;;;;;;1.40;1.40;;;;;;;;;;4964791;28;20226;-54
2023/03/27 03:05:24;;;;;;;1.20;1.20;;;;;;;;;;4970956;28;21058;-59
2023/03/27 03:07:53;;;;;;;1.20;1.20;;;;;;;;;;4975856;28;20183;-54
2023/03/27 03:10:19;;;;;;;1.10;1.10;;;;;;;;;;4975313;28;20199;-53
2023/03/27 03:12:44;;;;;;;1.20;1.20;;;;;;;;;;4961242;28;20674;-54
2023/03/27 03:15:11;;;;;;;1.40;1.40;;;;;;;;;;4976957;28;20269;-54
2023/03/27 03:17:36;;;;;;;1.50;1.50;;;;;;;;;;4974658;28;20274;-54
2023/03/27 03:20:04;;;;;;;1.50;1.50;;;;;;;;;;4977182;28;20202;-54
2023/03/27 03:22:30;;;;;;;1.40;1.40;;;;;;;;;;4977185;28;20238;-62
2023/03/27 03:24:56;;;;;;;1.50;1.50;;;;;;;;;;4974130;28;20713;-54
2023/03/27 03:27:22;;;;;;;1.30;1.30;;;;;;;;;;4975747;28;20257;-55
2023/03/27 03:29:48;;;;;;;1.50;1.50;;;;;;;;;;4974123;28;20285;-54
2023/03/27 03:32:14;;;;;;;1.40;1.40;;;;;;;;;;4975450;28;20273;-53
2023/03/27 03:34:40;;;;;;;1.20;1.20;;;;;;;;;;4975938;28;20202;-55
2023/03/27 03:37:09;;;;;;;1.10;1.10;;;;;;;;;;4973200;28;20719;-54
2023/03/27 03:39:35;;;;;;;1.20;1.20;;;;;;;;;;4969016;28;20746;-53
2023/03/27 03:42:01;;;;;;;1.50;1.50;;;;;;;;;;4972835;28;20289;-53
2023/03/27 03:44:27;;;;;;;1.40;1.40;;;;;;;;;;4967061;28;20235;-53
2023/03/27 03:46:53;;;;;;;1.63;1.63;;;;;;;;;;4966237;28;20245;-53
2023/03/27 03:49:19;;;;;;;1.50;1.50;;;;;;;;;;4960729;28;20193;-54
2023/03/27 03:51:45;;;;;;;1.10;1.10;;;;;;;;;;4961379;28;20191;-54
2023/03/27 03:54:11;;;;;;;1.07;1.07;;;;;;;;;;4970203;28;20186;-57
2023/03/27 03:56:40;;;;;;;1.10;1.10;;;;;;;;;;4968472;28;20293;-54
2023/03/27 03:59:07;;;;;;;1.30;1.30;;;;;;;;;;4972052;28;20195;-53
2023/03/27 04:01:33;;;;;;;1.10;1.10;;;;;;;;;;4970205;28;20256;-53
2023/03/27 04:03:59;;;;;;;1.00;1.00;;;;;;;;;;4967089;28;20253;-54
2023/03/27 04:06:25;;;;;;;1.20;1.20;;;;;;;;;;4969805;28;20257;-54
2023/03/27 04:08:51;;;;;;;1.27;1.27;;;;;;;;;;4968271;28;20222;-53
2023/03/27 04:11:18;;;;;;;1.20;1.20;;;;;;;;;;4978494;28;20186;-54
2023/03/27 04:13:44;;;;;;;1.50;1.50;;;;;;;;;;4977746;28;20186;-53
2023/03/27 04:16:10;;;;;;;1.40;1.40;;;;;;;;;;4971743;28;20665;-53
2023/03/27 04:18:39;;;;;;;1.40;1.40;;;;;;;;;;4975062;28;20194;-54
2023/03/27 04:21:05;;;;;;;2.00;1.90;;;;;;;;;;4966526;28;20202;-54
2023/03/27 04:23:31;;;;;;;1.70;1.70;;;;;;;;;;4973834;28;20186;-53
2023/03/27 04:26:02;;;;;;;1.27;1.27;;;;;;;;;;4962359;28;20222;-54
2023/03/27 04:28:29;;;;;;;0.97;0.97;;;;;;;;;;4963799;28;20201;-53
2023/03/27 04:30:55;;;;;;;0.83;0.83;;;;;;;;;;4963384;28;20191;-53
2023/03/27 04:33:21;;;;;;;1.07;1.07;;;;;;;;;;4963966;28;20742;-53
2023/03/27 04:35:49;;;;;;;1.10;1.10;;;;;;;;;;4964748;28;20235;-53
2023/03/27 04:38:15;;;;;;;1.00;1.00;;;;;;;;;;4963362;28;20195;-54
2023/03/27 04:40:44;;;;;;;0.80;0.80;;;;;;;;;;4958515;28;20573;-54
2023/03/27 04:43:10;;;;;;;1.00;1.00;;;;;;;;;;4958154;28;20202;-53
2023/03/27 04:45:37;;;;;;;1.00;1.00;;;;;;;;;;4960931;28;20252;-53
2023/03/27 04:48:03;;;;;;;1.10;1.10;;;;;;;;;;4955725;28;20762;-53
2023/03/27 04:50:29;;;;;;;1.00;1.00;;;;;;;;;;4960070;28;20277;-53
2023/03/27 04:53:00;;;;;;;1.00;1.00;;;;;;;;;;4960248;28;20665;-54
2023/03/27 04:55:26;;;;;;;0.90;0.90;;;;;;;;;;4954582;28;20186;-53
2023/03/27 04:57:53;;;;;;;0.83;0.83;;;;;;;;;;4956521;28;20649;-53
2023/03/27 05:00:21;;;;;;;1.00;1.00;;;;;;;;;;4961795;28;20202;-54
2023/03/27 05:02:48;;;;;;;1.00;1.00;;;;;;;;;;4956788;28;20896;-54
2023/03/27 05:05:15;;;;;;;1.00;1.00;;;;;;;;;;4951538;28;21061;-53
2023/03/27 05:07:44;;;;;;;0.90;0.90;;;;;;;;;;4964055;28;20229;-53
2023/03/27 05:10:10;;;;;;;0.80;0.80;;;;;;;;;;4964065;28;20245;-54
2023/03/27 05:12:36;;;;;;;1.00;1.00;;;;;;;;;;4945595;28;20190;-54
2023/03/27 05:15:05;;;;;;;0.90;0.90;;;;;;;;;;4963651;28;20193;-56
2023/03/27 05:17:31;;;;;;;1.00;1.00;;;;;;;;;;4973878;28;20201;-53
2023/03/27 05:19:57;;;;;;;1.00;1.00;;;;;;;;;;4977578;28;20195;-53
2023/03/27 05:22:23;;;;;;;1.00;1.00;;;;;;;;;;4975009;28;20287;-53
2023/03/27 05:24:50;;;;;;;0.90;0.90;;;;;;;;;;4976419;28;20621;-53
2023/03/27 05:27:16;;;;;;;0.80;0.80;;;;;;;;;;4976628;28;20662;-53
2023/03/27 05:29:42;;;;;;;0.90;0.90;;;;;;;;;;4973255;28;20183;-54
2023/03/27 05:32:08;;;;;;;0.90;0.90;;;;;;;;;;4971306;28;20660;-53
2023/03/27 05:34:37;;;;;;;0.97;0.97;;;;;;;;;;4971657;28;20236;-53
2023/03/27 05:37:05;;;;;;;0.90;0.90;;;;;;;;;;4978836;28;20326;-53
2023/03/27 05:39:31;;;;;;;0.90;0.90;;;;;;;;;;4981172;28;20237;-53
2023/03/27 05:41:56;;;;;;;0.90;0.90;;;;;;;;;;4980813;28;20221;-53
2023/03/27 05:44:24;;;;;;;0.90;0.90;;;;;;;;;;4982489;28;20762;-53
2023/03/27 05:46:50;;;;;;;1.13;1.13;;;;;;;;;;4980861;28;20221;-53
2023/03/27 05:49:16;;;;;;;1.07;1.07;;;;;;;;;;4980623;28;20187;-53
2023/03/27 05:51:42;;;;;;;1.00;1.00;;;;;;;;;;4978464;28;20178;-53
2023/03/27 05:54:08;;;;;;;1.00;1.00;;;;;;;;;;4980907;28;20590;-53
2023/03/27 05:56:34;;;;;;;0.80;0.80;;;;;;;;;;4976920;28;20223;-53
2023/03/27 05:59:01;;;;;;;0.83;0.83;;;;;;;;;;4982753;28;20261;-53
2023/03/27 06:01:27;;;;;;;0.80;0.80;;;;;;;;;;4983611;28;20199;-53
2023/03/27 06:03:54;;;;;;;0.80;0.80;;;;;;;;;;4979548;28;20987;-53
2023/03/27 06:06:21;;;;;;;0.80;0.80;;;;;;;;;;4979685;28;20288;-53
2023/03/27 06:08:47;;;;;;;0.90;0.90;;;;;;;;;;4977540;28;20269;-53
2023/03/27 06:11:14;;;;;;;0.90;0.90;;;;;;;;;;4984058;28;20202;-53
2023/03/27 06:13:40;;;;;;;0.80;0.80;;;;;;;;;;4978494;28;20199;-53
2023/03/27 06:16:06;;;;;;;1.00;1.00;;;;;;;;;;4979704;28;20693;-53
2023/03/27 06:18:32;;;;;;;0.80;0.80;;;;;;;;;;4979257;28;20194;-54
2023/03/27 06:20:58;;;;;;;1.00;1.00;;;;;;;;;;4976711;28;20198;-53
2023/03/27 06:23:24;;;;;;;0.90;0.90;;;;;;;;;;4973704;28;20191;-54
2023/03/27 06:25:51;;;;;;;0.80;0.80;;;;;;;;;;4979324;28;20584;-53
2023/03/27 06:28:18;;;;;;;0.90;0.90;;;;;;;;;;4979360;28;20277;-54
2023/03/27 06:30:44;;;;;;;1.00;1.00;;;;;;;;;;4981264;28;20771;-53
2023/03/27 06:33:11;;;;;;;1.20;1.20;;;;;;;;;;4981333;28;20548;-53
2023/03/27 06:35:38;;;;;;;1.00;1.00;;;;;;;;;;4978530;28;20195;-53
2023/03/27 06:38:05;;;;;;;0.80;0.80;;;;;;;;;;4978550;28;20195;-53
2023/03/27 06:40:31;;;;;;;2.53;2.43;;;;;;;;;;4981761;28;20688;-53
2023/03/27 06:42:58;;;;;;;0.90;0.90;;;;;;;;;;4979968;28;20203;-53
2023/03/27 06:45:26;;;;;;;1.00;1.00;;;;;;;;;;4978794;28;20203;-53
2023/03/27 06:47:52;;;;;;;1.00;1.00;;;;;;;;;;4978786;28;20190;-54
2023/03/27 06:50:18;;;;;;;1.00;1.00;;;;;;;;;;4978974;28;20672;-53
2023/03/27 06:52:46;;;;;;;1.00;1.00;;;;;;;;;;4977872;28;20253;-53
2023/03/27 06:55:12;;;;;;;0.90;0.90;;;;;;;;;;4981675;28;20706;-53
2023/03/27 06:57:45;;;;;;;0.83;0.83;;;;;;;;;;4980022;28;20205;-53
2023/03/27 07:00:17;;;;;;;0.80;0.80;;;;;;;;;;4980693;28;20193;-53
2023/03/27 07:02:44;;;;;;;1.00;1.00;;;;;;;;;;4974839;28;20361;-53
2023/03/27 07:05:10;;;;;;;0.90;0.90;;;;;;;;;;4978691;28;20214;-53
2023/03/27 07:07:36;;;;;;;0.93;0.93;;;;;;;;;;4978244;28;20288;-53
2023/03/27 07:10:02;;;;;;;1.00;1.00;;;;;;;;;;4981642;28;20332;-52
2023/03/27 07:12:27;;;;;;;1.00;1.00;;;;;;;;;;4977873;28;20552;-53
2023/03/27 07:14:54;;;;;;;0.90;0.90;;;;;;;;;;4979870;28;20195;-53
2023/03/27 07:17:19;;;;;;;0.80;0.80;;;;;;;;;;4981663;28;20651;-53
2023/03/27 07:19:45;;;;;;;0.90;0.90;;;;;;;;;;4969121;28;20256;-54
2023/03/27 07:22:11;;;;;;;1.00;1.00;;;;;;;;;;4978332;28;20202;-53
2023/03/27 07:24:37;;;;;;;0.87;0.87;;;;;;;;;;4982006;28;20277;-54
2023/03/27 07:27:03;;;;;;;0.90;0.90;;;;;;;;;;4980753;28;20196;-54
2023/03/27 07:29:29;;;;;;;0.90;0.90;;;;;;;;;;4980878;28;20600;-53
2023/03/27 07:31:55;;;;;;;0.87;0.87;;;;;;;;;;4979603;28;20206;-53
2023/03/27 07:34:22;;;;;;;0.90;0.90;;;;;;;;;;4979610;28;20182;-53
2023/03/27 07:36:48;;;;;;;1.30;1.30;;;;;;;;;;4981439;28;20221;-54
2023/03/27 07:39:13;;;;;;;1.10;1.10;;;;;;;;;;4982146;28;20261;-53
2023/03/27 07:41:39;;;;;;;1.20;1.20;;;;;;;;;;4975967;28;20189;-53
2023/03/27 07:44:05;;;;;;;1.30;1.30;;;;;;;;;;4975682;28;20191;-59
2023/03/27 07:46:31;;;;;;;1.50;1.50;;;;;;;;;;4976410;28;20224;-53
2023/03/27 07:48:57;;;;;;;1.40;1.40;;;;;;;;;;4976208;28;20571;-53
2023/03/27 07:51:23;;;;;;;2.27;2.17;;;;;;;;;;4978829;28;20274;-52
2023/03/27 07:53:54;;;;;;;2.30;2.20;;;;;;;;;;4975102;28;20838;-56
2023/03/27 07:56:22;;;;;;;2.50;2.40;;;;;;;;;;4980591;28;20254;-54
2023/03/27 07:58:48;;;;;;;2.30;2.20;;;;;;;;;;4980478;28;20562;-54
2023/03/27 08:01:13;;;;;;;1.43;1.43;;;;;;;;;;4975206;28;20198;-55
2023/03/27 08:03:40;;;;;;;1.40;1.40;;;;;;;;;;4966570;28;20401;-56
2023/03/27 08:06:06;;;;;;;1.50;1.50;;;;;;;;;;4969166;28;20293;-56
2023/03/27 08:08:33;;;;;;;2.30;2.20;;;;;;;;;;4954957;28;20599;-55
2023/03/27 08:10:59;;;;;;;2.60;2.50;;;;;;;;;;4961190;28;20780;-53
2023/03/27 08:13:25;;;;;;;1.70;1.70;;;;;;;;;;4959392;28;20234;-54
2023/03/27 08:15:51;;;;;;;2.00;1.90;;;;;;;;;;4967628;28;20191;-54
2023/03/27 08:18:17;;;;;;;2.70;2.60;;;;;;;;;;4958378;28;20202;-54
2023/03/27 08:20:44;;;;;;;2.20;2.10;;;;;;;;;;4956185;28;20288;-54
2023/03/27 08:23:10;;;;;;;2.30;2.20;;;;;;;;;;4960007;28;20339;-54
2023/03/27 08:25:36;;;;;;;2.40;2.30;;;;;;;;;;4958032;28;20763;-55
2023/03/27 08:28:02;;;;;;;1.80;1.70;;;;;;;;;;4959707;28;20192;-54
2023/03/27 08:30:28;;;;;;;1.30;1.30;;;;;;;;;;4956473;28;20817;-54
2023/03/27 08:32:55;;;;;;;1.70;1.70;;;;;;;;;;4960468;28;20641;-54
2023/03/27 08:35:21;;;;;;;1.20;1.20;;;;;;;;;;4956033;28;20677;-54
2023/03/27 08:37:47;;;;;;;1.10;1.10;;;;;;;;;;4956724;28;20187;-54
2023/03/27 08:40:18;;;;;;;1.50;1.50;;;;;;;;;;4959535;28;20203;-54
2023/03/27 08:42:44;;;;;;;2.40;2.30;;;;;;;;;;4957348;28;20541;-54
2023/03/27 08:45:14;;;;;;;6.33;6.03;;;;;;;;;;4964901;28;20208;-53
2023/03/27 08:47:41;;;;;;;2.47;2.37;;;;;;;;;;4961112;28;20194;-53
2023/03/27 08:50:15;;;;;;;3.60;3.50;;;;;;;;;;4959462;28;20221;-55
2023/03/27 08:52:42;;;;;;;1.50;1.50;;;;;;;;;;4961756;28;20542;-54
2023/03/27 08:55:17;;;;;;;1.97;1.87;;;;;;;;;;4961261;28;20307;-54
2023/03/27 08:57:43;;;;;;;2.40;2.30;;;;;;;;;;4958635;28;20650;-54
2023/03/27 09:00:15;;;;;;;2.10;2.00;;;;;;;;;;4961464;28;20214;-54
2023/03/27 09:02:43;;;;;;;1.93;1.83;;;;;;;;;;4958063;28;20196;-54
2023/03/27 09:05:23;;;;;;;1.90;1.80;;;;;;;;;;4956912;28;20226;-54
2023/03/27 09:07:55;;;;;;;1.30;1.30;;;;;;;;;;4964157;28;20699;-54
2023/03/27 09:10:31;;;;;;;1.30;1.30;;;;;;;;;;4960204;28;20186;-54
2023/03/27 09:12:57;;;;;;;1.10;1.10;;;;;;;;;;4958576;28;20265;-54
2023/03/27 09:15:24;;;;;;;1.67;1.67;;;;;;;;;;4958367;28;20196;-54
2023/03/27 09:17:55;;;;;;;2.23;2.13;;;;;;;;;;4958325;28;20640;-54
2023/03/27 09:20:32;;;;;;;1.20;1.20;;;;;;;;;;4958254;28;20680;-54
2023/03/27 09:23:04;;;;;;;1.00;1.00;;;;;;;;;;4960124;28;20190;-54
2023/03/27 09:25:37;;;;;;;1.00;1.00;;;;;;;;;;4959857;28;20691;-54
2023/03/27 09:28:03;;;;;;;1.20;1.20;;;;;;;;;;4962306;28;20618;-54
2023/03/27 09:30:32;;;;;;;1.00;1.00;;;;;;;;;;4959213;28;20246;-54
2023/03/27 09:33:02;;;;;;;1.00;1.00;;;;;;;;;;4961730;28;20190;-53
2023/03/27 09:35:28;;;;;;;1.20;1.20;;;;;;;;;;4963695;28;20707;-54
2023/03/27 09:37:57;;;;;;;1.67;1.67;;;;;;;;;;4956769;28;20202;-54
2023/03/27 09:40:30;;;;;;;2.20;2.10;;;;;;;;;;4956409;28;20298;-54
2023/03/27 09:42:56;;;;;;;2.10;2.00;;;;;;;;;;4958903;28;20226;-54
2023/03/27 09:45:22;;;;;;;2.50;2.40;;;;;;;;;;4957183;28;20337;-54
2023/03/27 09:47:54;;;;;;;2.57;2.47;;;;;;;;;;4955138;28;21722;-54
2023/03/27 09:50:23;;;;;;;2.63;2.53;;;;;;;;;;4964389;28;20194;-54
2023/03/27 09:52:51;;;;;;;2.10;2.00;;;;;;;;;;4960488;28;20209;-54
2023/03/27 09:55:22;;;;;;;2.20;2.10;;;;;;;;;;4956986;28;20199;-54
2023/03/27 09:57:48;;;;;;;2.07;1.97;;;;;;;;;;4958155;28;20234;-55
2023/03/27 10:00:33;;;;;;;2.30;2.20;;;;;;;;;;4959600;28;20630;-55
2023/03/27 10:03:06;;;;;;;2.10;2.00;;;;;;;;;;4957282;28;20195;-54
2023/03/27 10:05:32;;;;;;;2.30;2.20;;;;;;;;;;4953231;28;20218;-54
2023/03/27 10:07:59;;;;;;;2.10;2.00;;;;;;;;;;4971801;28;20980;-55
2023/03/27 10:10:26;;;;;;;2.20;2.10;;;;;;;;;;4976564;28;20689;-54
2023/03/27 10:12:56;;;;;;;2.60;2.50;;;;;;;;;;4976073;28;20204;-54
2023/03/27 10:15:37;;;;;;;2.40;2.30;;;;;;;;;;4967720;28;20236;-54
2023/03/27 10:18:22;;;;;;;2.33;2.23;;;;;;;;;;4957367;28;20202;-54
2023/03/27 10:20:50;;;;;;;2.30;2.20;;;;;;;;;;4976015;28;20222;-54
2023/03/27 10:23:26;;;;;;;2.30;2.20;;;;;;;;;;4978423;28;20278;-54
2023/03/27 10:25:53;;;;;;;2.37;2.27;;;;;;;;;;4980490;28;20236;-54
2023/03/27 10:28:23;;;;;;;2.30;2.20;;;;;;;;;;4977778;28;20187;-54
2023/03/27 10:31:07;;;;;;;2.40;2.30;;;;;;;;;;4980102;28;20194;-54
2023/03/27 10:33:36;;;;;;;2.30;2.20;;;;;;;;;;4977147;28;20294;-54
2023/03/27 10:36:04;;;;;;;2.10;2.00;;;;;;;;;;4979213;28;20405;-54
2023/03/27 10:38:31;;;;;;;2.60;2.50;;;;;;;;;;4980343;28;20579;-54
2023/03/27 10:40:57;;;;;;;2.10;2.00;;;;;;;;;;4973175;28;20190;-54
2023/03/27 10:43:42;;;;;;;2.10;2.00;;;;;;;;;;4980694;28;20209;-54
2023/03/27 10:46:09;;;;;;;2.10;2.00;;;;;;;;;;4978879;28;20313;-54
2023/03/27 10:48:41;;;;;;;0.93;0.93;;;;;;;;;;4980618;28;20645;-54
2023/03/27 10:51:10;;;;;;;1.20;1.20;;;;;;;;;;4982479;28;20539;-54
2023/03/27 10:53:41;;;;;;;1.02;1.02;;;;;;;;;;4960992;28;20199;-54
2023/03/27 10:56:09;;;;;;;1.83;1.75;;;;;;;;;;4964150;28;20610;-54
2023/03/27 10:58:35;;;;;;;1.70;1.70;;;;;;;;;;4974727;28;20226;-54
2023/03/27 11:01:03;;;;;;;1.50;1.50;;;;;;;;;;4974798;28;20344;-54
2023/03/27 11:03:33;;;;;;;1.40;1.40;;;;;;;;;;4960110;28;20546;-53
2023/03/27 11:05:59;;;;;;;1.30;1.30;;;;;;;;;;4976376;28;20365;-53
2023/03/27 11:08:28;;;;;;;1.50;1.50;;;;;;;;;;4974561;28;20667;-54
2023/03/27 11:10:56;;;;;;;1.30;1.30;;;;;;;;;;4979844;28;20416;-54
2023/03/27 11:13:25;;;;;;;1.20;1.20;;;;;;;;;;4978458;28;20597;-54
2023/03/27 11:15:53;;;;;;;1.30;1.30;;;;;;;;;;4981512;28;20550;-54
2023/03/27 11:18:25;;;;;;;2.60;2.50;;;;;;;;;;4963675;28;20589;-54
2023/03/27 11:21:17;;;;;;;1.50;1.50;;;;;;;;;;4983333;28;20639;-54
2023/03/27 11:23:48;;;;;;;0.70;0.70;;;;;;;;;;4977203;28;20218;-54
2023/03/27 11:26:17;;;;;;;1.20;1.20;;;;;;;;;;4975373;28;20210;-54
2023/03/27 11:29:02;;;;;;;0.93;0.93;;;;;;;;;;4959910;28;20264;-54
2023/03/27 11:31:30;;;;;;;1.20;1.20;;;;;;;;;;4978896;28;20241;-54
2023/03/27 11:34:05;;;;;;;1.83;1.73;;;;;;;;;;4972557;28;20178;-54
2023/03/27 11:36:33;;;;;;;1.42;1.40;;;;;;;;;;4980954;28;20288;-54
2023/03/27 11:39:19;;;;;;;1.30;1.30;;;;;;;;;;4975959;28;20190;-55
2023/03/27 11:41:48;;;;;;;22.88;21.83;;;;;;;;;;4978673;28;20194;-54
2023/03/27 11:44:14;;;;;;;1.20;1.20;;;;;;;;;;4980329;28;20198;-54
2023/03/27 11:46:50;;;;;;;3.03;2.92;;;;;;;;;;4977314;28;20232;-54
2023/03/27 11:49:23;;;;;;;2.47;2.38;;;;;;;;;;4959269;28;20277;-53
2023/03/27 11:51:59;;;;;;;1.20;1.20;;;;;;;;;;4980604;28;20187;-54
2023/03/27 11:54:31;;;;;;;1.40;1.40;;;;;;;;;;4960342;28;20556;-58
2023/03/27 11:56:58;;;;;;;1.35;1.35;;;;;;;;;;4975831;28;20199;-55
2023/03/27 11:59:32;;;;;;;1.45;1.45;;;;;;;;;;4978052;28;20686;-54
2023/03/27 12:01:58;;;;;;;1.90;1.80;;;;;;;;;;4978557;28;20189;-54
2023/03/27 12:04:29;;;;;;;1.40;1.40;;;;;;;;;;4975352;28;20195;-54
2023/03/27 12:07:06;;;;;;;1.10;1.10;;;;;;;;;;4979158;28;20266;-55
2023/03/27 12:09:35;;;;;;;41.70;39.47;;;;;;;;;;4976198;28;20221;-54
2023/03/27 12:12:04;;;;;;;25.07;23.93;;;;;;;;;;4977671;28;20223;-54
2023/03/27 12:14:45;;;;;;;0.80;0.80;;;;;;;;;;4977647;28;20261;-55
2023/03/27 12:17:11;;;;;;;1.73;1.67;;;;;;;;;;4975382;28;20258;-53
2023/03/27 12:19:41;;;;;;;1.50;1.50;;;;;;;;;;4975956;28;20282;-54
2023/03/27 12:22:16;;;;;;;1.93;1.83;;;;;;;;;;4969601;28;20498;-53
2023/03/27 12:24:52;;;;;;;1.40;1.40;;;;;;;;;;4972956;28;20190;-54
2023/03/27 12:27:22;;;;;;;1.90;1.80;;;;;;;;;;4971651;28;20191;-54
2023/03/27 12:29:48;;;;;;;3.07;2.97;;;;;;;;;;4979230;28;20195;-54
2023/03/27 12:32:32;;;;;;;31.50;30.05;;;;;;;;;;4973027;28;20197;-54
2023/03/27 12:35:02;;;;;;;87.70;83.53;;;;;;;;;;4972358;28;20190;-54
2023/03/27 12:37:30;;;;;;;125.72;119.38;;;;;;;;;;4961985;28;20197;-54
2023/03/27 12:39:57;;;;;;;184.93;174.55;;;;;;;;;;4966808;28;20179;-53
2023/03/27 12:42:38;;;;;;;123.00;116.50;;;;;;;;;;4976920;28;20667;-53
2023/03/27 12:45:14;;;;;;;116.35;110.50;;;;;;;;;;4975989;28;20231;-53
2023/03/27 12:47:43;;;;;;;12.50;11.95;;;;;;;;;;4974321;28;20274;-53
2023/03/27 12:50:19;;;;;;;147.25;138.32;;;;;;;;;;4963259;28;20179;-53
2023/03/27 12:52:45;;;;;;;127.47;121.32;;;;;;;;;;4973507;28;20283;-53
2023/03/27 12:55:17;;;;;;;96.53;91.90;;;;;;;;;;4977553;28;20178;-53
2023/03/27 12:57:43;;;;;;;106.20;101.20;;;;;;;;;;4974514;28;20690;-53
2023/03/27 13:00:20;;;;;;;51.60;49.17;;;;;;;;;;4974819;28;20201;-55
2023/03/27 13:03:05;;;;;;;35.78;34.13;;;;;;;;;;4970100;28;20774;-51
2023/03/27 13:05:34;;;;;;;24.30;23.17;;;;;;;;;;4972797;28;20217;-53
2023/03/27 13:08:09;;;;;;;62.10;59.25;;;;;;;;;;4979160;28;20793;-53
2023/03/27 13:10:38;;;;;;;83.40;79.57;;;;;;;;;;4965581;28;20175;-54
2023/03/27 13:13:04;;;;;;;54.20;51.70;;;;;;;;;;4977302;28;20195;-54
2023/03/27 13:15:31;;;;;;;48.42;46.17;;;;;;;;;;4974735;28;20191;-54
2023/03/27 13:17:59;;;;;;;34.65;33.05;;;;;;;;;;4976342;28;20221;-54
2023/03/27 13:20:29;;;;;;;73.00;69.55;;;;;;;;;;4975004;28;20193;-53
2023/03/27 13:23:01;;;;;;;45.72;43.60;;;;;;;;;;4976088;28;24777;-55
2023/03/27 13:25:31;;;;;;;13.23;12.63;;;;;;;;;;4976298;28;20265;-53
2023/03/27 13:28:00;;;;;;;6.00;5.72;;;;;;;;;;4974091;28;20202;-57
2023/03/27 13:30:41;;;;;;;10.35;9.90;;;;;;;;;;4949563;28;20206;-53
2023/03/27 13:33:17;;;;;;;21.13;20.17;;;;;;;;;;4969984;28;20198;-54
2023/03/27 13:35:50;;;;;;;21.77;20.75;;;;;;;;;;4970944;28;20217;-54
2023/03/27 13:38:16;;;;;;;18.95;18.10;;;;;;;;;;4976887;28;20775;-54
2023/03/27 13:40:44;;;;;;;59.38;56.65;;;;;;;;;;4972276;28;20658;-54
2023/03/27 13:43:16;;;;;;;14.15;13.55;;;;;;;;;;4960022;28;20195;-54
2023/03/27 13:45:51;;;;;;;12.93;12.35;;;;;;;;;;4963086;28;20285;-54
2023/03/27 13:48:17;;;;;;;25.92;24.75;;;;;;;;;;4969425;28;20178;-53
2023/03/27 13:50:53;;;;;;;33.22;31.67;;;;;;;;;;4978137;28;20218;-54
2023/03/27 13:53:22;;;;;;;13.60;13.00;;;;;;;;;;4977928;28;20183;-54
2023/03/27 13:56:07;;;;;;;13.27;12.68;;;;;;;;;;4979876;28;21100;-54
2023/03/27 13:58:36;;;;;;;3.25;3.15;;;;;;;;;;4976182;28;20745;-54
2023/03/27 14:01:08;;;;;;;4.97;4.75;;;;;;;;;;4974537;28;20217;-53
2023/03/27 14:03:39;;;;;;;4.50;4.30;;;;;;;;;;4977675;28;20190;-56
2023/03/27 14:06:20;;;;;;;2.90;2.80;;;;;;;;;;4977103;28;20609;-55
2023/03/27 14:08:46;;;;;;;2.55;2.45;;;;;;;;;;4980232;28;20187;-55
2023/03/27 14:11:16;;;;;;;3.78;3.65;;;;;;;;;;4978142;28;20198;-56
2023/03/27 14:13:48;;;;;;;2.90;2.80;;;;;;;;;;4963645;28;20221;-59
2023/03/27 14:16:34;;;;;;;2.38;2.28;;;;;;;;;;4949789;28;20191;-55
2023/03/27 14:19:09;;;;;;;2.83;2.72;;;;;;;;;;4949179;28;20186;-55
2023/03/27 14:21:48;;;;;;;3.50;3.40;;;;;;;;;;4946930;28;20182;-57
2023/03/27 14:24:22;;;;;;;2.50;2.40;;;;;;;;;;4946545;28;20202;-55
2023/03/27 14:26:48;;;;;;;1.93;1.83;;;;;;;;;;4935533;28;21490;-57
2023/03/27 14:29:14;;;;;;;2.40;2.30;;;;;;;;;;4951595;28;20210;-56
2023/03/27 14:31:42;;;;;;;1.80;1.70;;;;;;;;;;4939953;28;20194;-59
2023/03/27 14:34:08;;;;;;;1.30;1.30;;;;;;;;;;4965166;28;20256;-57
2023/03/27 14:36:40;;;;;;;1.23;1.23;;;;;;;;;;4974189;28;20202;-56
2023/03/27 14:39:26;;;;;;;3.97;3.80;;;;;;;;;;4968315;28;20203;-56
2023/03/27 14:41:54;;;;;;;3.57;3.47;;;;;;;;;;4966642;28;20198;-56
2023/03/27 14:44:20;;;;;;;2.97;2.87;;;;;;;;;;4969547;28;20190;-55
2023/03/27 14:46:49;;;;;;;2.47;2.37;;;;;;;;;;4962556;28;20277;-57
2023/03/27 14:49:18;;;;;;;3.20;3.10;;;;;;;;;;4970670;28;20277;-56
2023/03/27 14:51:46;;;;;;;8.43;8.07;;;;;;;;;;4963105;28;20202;-58